createdAt,value
2022-10-22T00:03:00.722Z,99929.54
2022-10-22T00:08:03.928Z,99924.48
2022-10-22T00:13:07.059Z,99924.02
2022-10-22T00:18:09.829Z,99922.06
2022-10-22T00:23:12.569Z,99922.73
2022-10-22T00:28:15.534Z,99918.98
2022-10-22T00:33:18.287Z,99910.28
2022-10-22T00:38:21.638Z,99908.05
2022-10-22T00:43:24.690Z,99900.79
2022-10-22T00:48:30.215Z,99893.71
2022-10-22T00:53:39.748Z,99889.35
2022-10-22T00:58:46.623Z,99886.50
2022-10-22T01:03:50.679Z,99887.15
2022-10-22T01:09:11.465Z,99889.57
2022-10-22T01:14:16.961Z,99883.30
2022-10-22T01:19:56.965Z,99871.77
2022-10-22T01:25:35.111Z,99870.27
2022-10-22T01:30:39.573Z,99868.65
2022-10-22T01:35:45.360Z,99862.77
2022-10-22T01:40:49.741Z,99863.77
2022-10-22T01:45:57.937Z,99867.73
2022-10-22T01:51:35.588Z,99862.96
2022-10-22T01:57:11.975Z,99856.53
2022-10-22T02:02:43.120Z,99847.68
2022-10-22T02:08:03.276Z,99836.80
2022-10-22T02:13:11.062Z,99840.66
2022-10-22T02:18:15.914Z,99835.30
2022-10-22T02:23:20.602Z,99834.55
2022-10-22T02:28:39.859Z,99834.06
2022-10-22T02:33:47.915Z,99827.42
2022-10-22T02:38:52.455Z,99825.83
2022-10-22T02:43:55.930Z,99822.69
2022-10-22T02:48:58.652Z,99822.66
2022-10-22T02:54:01.484Z,99823.70
2022-10-22T02:59:04.308Z,99824.02
2022-10-22T03:04:07.085Z,99826.95
2022-10-22T03:09:10.417Z,99826.59
2022-10-22T03:14:13.579Z,99824.11
2022-10-22T03:19:16.430Z,99826.69
2022-10-22T03:24:26.190Z,99826.45
2022-10-22T03:29:31.921Z,99826.82
2022-10-22T03:34:34.696Z,99823.54
2022-10-22T03:39:38.533Z,99822.50
2022-10-22T03:44:41.632Z,99813.59
2022-10-22T03:49:44.423Z,99814.73
2022-10-22T03:54:47.292Z,99819.25
2022-10-22T03:59:51.146Z,99813.98
2022-10-22T04:04:53.914Z,99819.42
2022-10-22T04:09:56.623Z,99819.69
2022-10-22T04:14:59.356Z,99813.88
2022-10-22T04:20:03.302Z,99807.64
2022-10-22T04:25:06.275Z,99807.60
2022-10-22T04:30:10.035Z,99812.59
2022-10-22T04:35:12.880Z,99805.85
2022-10-22T04:40:15.693Z,99805.83
2022-10-22T04:45:18.486Z,99816.07
2022-10-22T04:50:21.369Z,99814.45
2022-10-22T04:55:24.155Z,99820.40
2022-10-22T05:00:27.893Z,99814.92
2022-10-22T05:05:30.628Z,99791.16
2022-10-22T05:10:33.392Z,99775.38
2022-10-22T05:15:36.127Z,99793.65
2022-10-22T05:20:42.660Z,99787.79
2022-10-22T05:25:45.418Z,99787.52
2022-10-22T05:30:56.531Z,99775.40
2022-10-22T05:36:00.509Z,99767.36
2022-10-22T05:41:07.412Z,99779.34
2022-10-22T05:46:23.074Z,99781.89
2022-10-22T05:51:28.326Z,99780.49
2022-10-22T05:56:32.587Z,99788.55
2022-10-22T06:01:35.735Z,99792.20
2022-10-22T06:06:40.199Z,99788.56
2022-10-22T06:11:43.031Z,99794.99
2022-10-22T06:16:45.849Z,99807.42
2022-10-22T06:21:49.154Z,99806.23
2022-10-22T06:26:52.486Z,99817.41
2022-10-22T06:31:55.243Z,99820.38
2022-10-22T06:36:58.026Z,99837.63
2022-10-22T06:42:00.780Z,99839.85
2022-10-22T06:47:03.533Z,99843.37
2022-10-22T06:52:06.304Z,99845.71
2022-10-22T06:57:09.090Z,99845.69
2022-10-22T07:02:11.868Z,99849.65
2022-10-22T07:07:15.280Z,99846.79
2022-10-22T07:12:18.060Z,99844.58
2022-10-22T07:17:20.772Z,99852.64
2022-10-22T07:22:23.514Z,99850.35
2022-10-22T07:27:26.247Z,99853.45
2022-10-22T07:32:28.986Z,99857.10
2022-10-22T07:37:31.738Z,99852.16
2022-10-22T07:42:34.486Z,99851.80
2022-10-22T07:47:37.312Z,99854.75
2022-10-22T07:52:40.285Z,99849.94
2022-10-22T07:57:43.097Z,99855.83
2022-10-22T08:02:46.157Z,99851.86
2022-10-22T08:07:48.796Z,99854.20
2022-10-22T08:12:51.562Z,99848.31
2022-10-22T08:17:54.587Z,99847.41
2022-10-22T08:22:57.980Z,99859.14
2022-10-22T08:28:00.664Z,99863.49
2022-10-22T08:33:03.783Z,99876.75
2022-10-22T08:38:06.447Z,99880.50
2022-10-22T08:43:12.667Z,99879.23
2022-10-22T08:48:38.438Z,99877.15
2022-10-22T08:53:49.116Z,99881.97
2022-10-22T08:59:10.844Z,99876.27
2022-10-22T09:04:41.596Z,99876.42
2022-10-22T09:09:51.161Z,99873.66
2022-10-22T09:14:54.249Z,99870.48
2022-10-22T09:20:23.878Z,99869.65
2022-10-22T09:25:29.664Z,99867.11
2022-10-22T09:30:35.447Z,99866.23
2022-10-22T09:35:53.421Z,99880.06
2022-10-22T09:40:58.668Z,99881.55
2022-10-22T09:46:04.848Z,99879.73
2022-10-22T09:51:25.547Z,99875.36
2022-10-22T09:56:35.641Z,99866.06
2022-10-22T10:01:39.445Z,99855.45
2022-10-22T10:06:44.353Z,99844.02
2022-10-22T10:11:58.939Z,99841.38
2022-10-22T10:17:19.782Z,99844.95
2022-10-22T10:22:31.589Z,99840.44
2022-10-22T10:27:46.070Z,99842.02
2022-10-22T10:32:55.487Z,99845.36
2022-10-22T10:38:09.107Z,99843.54
2022-10-22T10:43:38.834Z,99844.17
2022-10-22T10:48:56.179Z,99850.27
2022-10-22T10:54:16.467Z,99854.13
2022-10-22T10:59:28.892Z,99852.34
2022-10-22T11:04:48.735Z,99860.23
2022-10-22T11:10:00.713Z,99854.85
2022-10-22T11:15:09.630Z,99851.31
2022-10-22T11:20:24.990Z,99847.75
2022-10-22T11:25:33.416Z,99843.59
2022-10-22T11:30:38.358Z,99831.61
2022-10-22T11:35:44.108Z,99823.41
2022-10-22T11:40:57.940Z,99816.77
2022-10-22T11:46:26.834Z,99819.37
2022-10-22T11:51:38.960Z,99818.25
2022-10-22T11:56:41.755Z,99825.09
2022-10-22T12:01:48.289Z,99831.00
2022-10-22T12:06:56.077Z,99833.85
2022-10-22T12:12:05.092Z,99831.86
2022-10-22T12:17:07.781Z,99826.80
2022-10-22T12:22:10.495Z,99815.63
2022-10-22T12:27:25.287Z,99809.83
2022-10-22T12:32:41.547Z,99805.61
2022-10-22T12:37:44.596Z,99803.67
2022-10-22T12:42:49.645Z,99802.43
2022-10-22T12:47:57.587Z,99799.84
2022-10-22T12:53:00.441Z,99795.52
2022-10-22T12:58:06.899Z,99794.08
2022-10-22T13:03:26.183Z,99789.02
2022-10-22T13:08:29.361Z,99787.61
2022-10-22T13:13:45.655Z,99785.25
2022-10-22T13:18:48.892Z,99781.02
2022-10-22T13:23:58.266Z,99774.31
2022-10-22T13:29:02.984Z,99770.30
2022-10-22T13:34:11.895Z,99766.36
2022-10-22T13:39:22.031Z,99761.75
2022-10-22T13:44:24.812Z,99757.63
2022-10-22T13:49:27.564Z,99750.02
2022-10-22T13:54:30.387Z,99746.87
2022-10-22T13:59:33.162Z,99741.95
2022-10-22T14:04:39.230Z,99735.05
2022-10-22T14:09:42.472Z,99735.22
2022-10-22T14:14:45.302Z,99732.40
2022-10-22T14:19:49.709Z,99731.39
2022-10-22T14:24:52.550Z,99730.86
2022-10-22T14:29:59.391Z,99733.44
2022-10-22T14:35:02.525Z,99735.92
2022-10-22T14:40:06.740Z,99736.39
2022-10-22T14:45:22.357Z,99736.48
2022-10-22T14:50:25.424Z,99739.55
2022-10-22T14:55:29.166Z,99743.71
2022-10-22T15:00:32.045Z,99748.38
2022-10-22T15:05:36.433Z,99748.15
2022-10-22T15:10:39.319Z,99745.35
2022-10-22T15:15:42.082Z,99742.27
2022-10-22T15:20:55.695Z,99742.20
2022-10-22T15:25:58.823Z,99750.20
2022-10-22T15:31:01.549Z,99754.92
2022-10-22T15:36:12.791Z,99748.98
2022-10-22T15:41:15.889Z,99750.33
2022-10-22T15:46:19.719Z,99754.42
2022-10-22T15:51:22.569Z,99758.65
2022-10-22T15:56:27.761Z,99760.36
2022-10-22T16:01:32.513Z,99760.48
2022-10-22T16:06:37.607Z,99769.45
2022-10-22T16:11:41.505Z,99765.25
2022-10-22T16:16:47.041Z,99767.11
2022-10-22T16:21:51.775Z,99769.57
2022-10-22T16:26:55.460Z,99770.44
2022-10-22T16:31:58.189Z,99773.90
2022-10-22T16:37:00.991Z,99771.44
2022-10-22T16:42:03.978Z,99773.09
2022-10-22T16:47:06.721Z,99775.73
2022-10-22T16:52:09.543Z,99777.94
2022-10-22T16:57:12.549Z,99776.31
2022-10-22T17:02:15.276Z,99775.52
2022-10-22T17:07:18.083Z,99778.30
2022-10-22T17:12:20.873Z,99778.58
2022-10-22T17:17:23.611Z,99780.42
2022-10-22T17:22:26.602Z,99781.71
2022-10-22T17:27:29.346Z,99788.14
2022-10-22T17:32:35.584Z,99787.80
2022-10-22T17:37:38.582Z,99790.66
2022-10-22T17:42:41.692Z,99787.87
2022-10-22T17:47:44.630Z,99787.28
2022-10-22T17:52:47.393Z,99789.52
2022-10-22T17:57:50.175Z,99786.38
2022-10-22T18:02:52.965Z,99787.41
2022-10-22T18:07:58.837Z,99789.11
2022-10-22T18:13:01.596Z,99793.44
2022-10-22T18:18:04.538Z,99794.02
2022-10-22T18:23:07.661Z,99791.33
2022-10-22T18:28:12.816Z,99788.97
2022-10-22T18:33:17.937Z,99787.83
2022-10-22T18:38:23.818Z,99783.70
2022-10-22T18:43:26.917Z,99785.19
2022-10-22T18:48:29.740Z,99794.88
2022-10-22T18:53:32.921Z,99791.94
2022-10-22T18:58:45.027Z,99792.85
2022-10-22T19:03:49.182Z,99796.25
2022-10-22T19:08:52.110Z,99798.98
2022-10-22T19:13:54.846Z,99797.80
2022-10-22T19:19:04.387Z,99805.21
2022-10-22T19:24:07.394Z,99803.61
2022-10-22T19:29:13.428Z,99806.94
2022-10-22T19:34:16.611Z,99810.02
2022-10-22T19:39:20.322Z,99817.16
2022-10-22T19:44:23.266Z,99819.90
2022-10-22T19:49:26.090Z,99821.10
2022-10-22T19:54:28.825Z,99824.86
2022-10-22T19:59:32.283Z,99822.95
2022-10-22T20:04:36.429Z,99827.23
2022-10-22T20:09:39.314Z,99838.10
2022-10-22T20:14:42.387Z,99836.50
2022-10-22T20:19:45.046Z,99842.57
2022-10-22T20:24:47.828Z,99849.58
2022-10-22T20:29:50.608Z,99849.09
2022-10-22T20:34:53.331Z,99848.85
2022-10-22T20:39:56.073Z,99853.05
2022-10-22T20:44:58.806Z,99853.73
2022-10-22T20:50:01.698Z,99854.41
2022-10-22T20:55:05.533Z,99856.26
2022-10-22T21:00:09.047Z,99859.27
2022-10-22T21:05:11.841Z,99862.34
2022-10-22T21:10:14.671Z,99869.06
2022-10-22T21:15:17.432Z,99871.78
2022-10-22T21:20:22.416Z,99879.81
2022-10-22T21:25:27.661Z,99880.11
2022-10-22T21:30:30.467Z,99881.81
2022-10-22T21:35:33.607Z,99884.50
2022-10-22T21:40:36.848Z,99885.48
2022-10-22T21:45:39.692Z,99888.14
2022-10-22T21:50:44.166Z,99896.86
2022-10-22T21:55:46.925Z,99902.02
2022-10-22T22:00:55.644Z,99909.56
2022-10-22T22:06:00.892Z,99909.55
2022-10-22T22:11:07.222Z,99910.36
2022-10-22T22:16:13.759Z,99909.31
2022-10-22T22:21:19.885Z,99912.05
2022-10-22T22:26:28.469Z,99914.12
2022-10-22T22:31:34.319Z,99923.71
2022-10-22T22:36:40.258Z,99929.42
2022-10-22T22:41:43.530Z,99938.04
2022-10-22T22:46:46.438Z,99938.30
2022-10-22T22:51:49.630Z,99942.70
2022-10-22T22:56:52.389Z,99947.71
2022-10-22T23:01:55.281Z,99949.91
2022-10-22T23:06:58.182Z,99952.80
2022-10-22T23:12:00.981Z,99962.20
2022-10-22T23:17:03.807Z,99957.23
2022-10-22T23:22:06.632Z,99965.59
2022-10-22T23:27:10.149Z,99966.88
2022-10-22T23:32:16.902Z,99969.70
2022-10-22T23:37:19.807Z,99978.20
2022-10-22T23:42:22.604Z,99977.96
2022-10-22T23:47:25.358Z,99980.45
2022-10-22T23:52:28.497Z,99988.88
2022-10-22T23:57:31.156Z,99997.27
